sensor_id;sensor_type;location;lat;lon;timestamp;P1;durP1;ratioP1;P2;durP2;ratioP2
33802;SDS011;20110;53.120;5.786;2023-04-03T00:00:52;4.80;;;1.92;;
33802;SDS011;20110;53.120;5.786;2023-04-03T00:03:18;1.77;;;1.30;;
33802;SDS011;20110;53.120;5.786;2023-04-03T00:05:44;2.17;;;1.30;;
33802;SDS011;20110;53.120;5.786;2023-04-03T00:08:11;8.52;;;1.83;;
33802;SDS011;20110;53.120;5.786;2023-04-03T00:10:37;6.95;;;1.70;;
33802;SDS011;20110;53.120;5.786;2023-04-03T00:13:04;2.47;;;1.38;;
33802;SDS011;20110;53.120;5.786;2023-04-03T00:15:31;2.70;;;1.13;;
33802;SDS011;20110;53.120;5.786;2023-04-03T00:17:58;2.83;;;1.70;;
33802;SDS011;20110;53.120;5.786;2023-04-03T00:20:23;3.15;;;1.40;;
33802;SDS011;20110;53.120;5.786;2023-04-03T00:22:49;2.10;;;1.30;;
33802;SDS011;20110;53.120;5.786;2023-04-03T00:25:15;2.38;;;1.27;;
33802;SDS011;20110;53.120;5.786;2023-04-03T00:27:41;2.35;;;1.30;;
33802;SDS011;20110;53.120;5.786;2023-04-03T00:30:08;4.65;;;1.30;;
33802;SDS011;20110;53.120;5.786;2023-04-03T00:32:37;6.75;;;1.75;;
33802;SDS011;20110;53.120;5.786;2023-04-03T00:35:05;4.05;;;1.58;;
33802;SDS011;20110;53.120;5.786;2023-04-03T00:37:31;3.88;;;1.33;;
33802;SDS011;20110;53.120;5.786;2023-04-03T00:39:58;1.30;;;1.17;;
33802;SDS011;20110;53.120;5.786;2023-04-03T00:42:24;2.20;;;1.42;;
33802;SDS011;20110;53.120;5.786;2023-04-03T00:47:22;1.13;;;1.00;;
33802;SDS011;20110;53.120;5.786;2023-04-03T00:49:50;3.13;;;1.75;;
33802;SDS011;20110;53.120;5.786;2023-04-03T00:52:19;5.80;;;1.70;;
33802;SDS011;20110;53.120;5.786;2023-04-03T00:54:53;6.53;;;2.10;;
33802;SDS011;20110;53.120;5.786;2023-04-03T00:57:23;5.70;;;2.03;;
33802;SDS011;20110;53.120;5.786;2023-04-03T00:59:50;3.58;;;1.58;;
33802;SDS011;20110;53.120;5.786;2023-04-03T01:02:23;5.50;;;1.70;;
33802;SDS011;20110;53.120;5.786;2023-04-03T01:04:48;4.63;;;2.03;;
33802;SDS011;20110;53.120;5.786;2023-04-03T01:07:15;9.13;;;2.03;;
33802;SDS011;20110;53.120;5.786;2023-04-03T01:09:46;1.73;;;1.63;;
33802;SDS011;20110;53.120;5.786;2023-04-03T01:12:30;5.93;;;2.25;;
33802;SDS011;20110;53.120;5.786;2023-04-03T01:15:00;3.15;;;1.85;;
33802;SDS011;20110;53.120;5.786;2023-04-03T01:17:59;2.05;;;1.67;;
33802;SDS011;20110;53.120;5.786;2023-04-03T01:25:40;4.85;;;2.78;;
33802;SDS011;20110;53.120;5.786;2023-04-03T01:28:14;8.98;;;2.88;;
33802;SDS011;20110;53.120;5.786;2023-04-03T01:33:23;8.05;;;2.83;;
33802;SDS011;20110;53.120;5.786;2023-04-03T01:35:49;10.15;;;2.42;;
33802;SDS011;20110;53.120;5.786;2023-04-03T01:38:15;6.40;;;2.97;;
33802;SDS011;20110;53.120;5.786;2023-04-03T01:40:41;4.20;;;2.47;;
33802;SDS011;20110;53.120;5.786;2023-04-03T01:43:07;9.07;;;1.95;;
33802;SDS011;20110;53.120;5.786;2023-04-03T01:45:33;9.32;;;2.63;;
33802;SDS011;20110;53.120;5.786;2023-04-03T01:47:59;7.57;;;2.55;;
33802;SDS011;20110;53.120;5.786;2023-04-03T01:50:25;5.40;;;2.95;;
33802;SDS011;20110;53.120;5.786;2023-04-03T01:52:50;3.42;;;2.60;;
33802;SDS011;20110;53.120;5.786;2023-04-03T01:55:16;8.88;;;2.80;;
33802;SDS011;20110;53.120;5.786;2023-04-03T01:57:42;8.55;;;2.83;;
33802;SDS011;20110;53.120;5.786;2023-04-03T02:00:08;8.60;;;2.40;;
33802;SDS011;20110;53.120;5.786;2023-04-03T02:02:34;5.10;;;2.78;;
33802;SDS011;20110;53.120;5.786;2023-04-03T02:05:00;4.40;;;2.72;;
33802;SDS011;20110;53.120;5.786;2023-04-03T02:07:26;8.77;;;2.58;;
33802;SDS011;20110;53.120;5.786;2023-04-03T02:09:52;3.72;;;2.50;;
33802;SDS011;20110;53.120;5.786;2023-04-03T02:12:18;3.08;;;2.30;;
33802;SDS011;20110;53.120;5.786;2023-04-03T02:14:44;9.52;;;2.78;;
33802;SDS011;20110;53.120;5.786;2023-04-03T02:17:10;9.32;;;2.30;;
33802;SDS011;20110;53.120;5.786;2023-04-03T02:19:36;3.90;;;2.45;;
33802;SDS011;20110;53.120;5.786;2023-04-03T02:22:02;7.18;;;2.28;;
33802;SDS011;20110;53.120;5.786;2023-04-03T02:24:29;6.22;;;2.38;;
33802;SDS011;20110;53.120;5.786;2023-04-03T02:26:56;5.28;;;2.67;;
33802;SDS011;20110;53.120;5.786;2023-04-03T02:29:23;10.13;;;2.35;;
33802;SDS011;20110;53.120;5.786;2023-04-03T02:31:49;5.38;;;2.58;;
33802;SDS011;20110;53.120;5.786;2023-04-03T02:34:16;2.90;;;2.25;;
33802;SDS011;20110;53.120;5.786;2023-04-03T02:36:42;4.85;;;2.35;;
33802;SDS011;20110;53.120;5.786;2023-04-03T02:39:09;3.63;;;2.50;;
33802;SDS011;20110;53.120;5.786;2023-04-03T02:41:34;7.50;;;2.22;;
33802;SDS011;20110;53.120;5.786;2023-04-03T02:44:01;4.30;;;2.60;;
33802;SDS011;20110;53.120;5.786;2023-04-03T02:46:28;7.20;;;2.65;;
33802;SDS011;20110;53.120;5.786;2023-04-03T02:48:54;5.25;;;1.90;;
33802;SDS011;20110;53.120;5.786;2023-04-03T02:51:20;5.15;;;2.13;;
33802;SDS011;20110;53.120;5.786;2023-04-03T02:53:47;4.72;;;1.73;;
33802;SDS011;20110;53.120;5.786;2023-04-03T02:56:14;5.13;;;2.30;;
33802;SDS011;20110;53.120;5.786;2023-04-03T02:58:42;5.13;;;1.58;;
33802;SDS011;20110;53.120;5.786;2023-04-03T03:01:08;3.47;;;2.45;;
33802;SDS011;20110;53.120;5.786;2023-04-03T03:03:35;6.57;;;1.73;;
33802;SDS011;20110;53.120;5.786;2023-04-03T03:06:04;4.40;;;1.65;;
33802;SDS011;20110;53.120;5.786;2023-04-03T03:08:33;5.35;;;1.67;;
33802;SDS011;20110;53.120;5.786;2023-04-03T03:11:00;2.15;;;1.33;;
33802;SDS011;20110;53.120;5.786;2023-04-03T03:13:27;5.05;;;1.67;;
33802;SDS011;20110;53.120;5.786;2023-04-03T03:15:53;3.45;;;1.48;;
33802;SDS011;20110;53.120;5.786;2023-04-03T03:18:20;3.90;;;2.35;;
33802;SDS011;20110;53.120;5.786;2023-04-03T03:20:50;4.38;;;2.00;;
33802;SDS011;20110;53.120;5.786;2023-04-03T03:23:18;7.60;;;2.45;;
33802;SDS011;20110;53.120;5.786;2023-04-03T03:25:44;1.77;;;1.45;;
33802;SDS011;20110;53.120;5.786;2023-04-03T03:28:10;2.00;;;1.50;;
33802;SDS011;20110;53.120;5.786;2023-04-03T03:30:36;4.38;;;1.65;;
33802;SDS011;20110;53.120;5.786;2023-04-03T03:33:02;1.70;;;1.40;;
33802;SDS011;20110;53.120;5.786;2023-04-03T03:35:28;4.88;;;2.17;;
33802;SDS011;20110;53.120;5.786;2023-04-03T03:37:54;2.30;;;1.45;;
33802;SDS011;20110;53.120;5.786;2023-04-03T03:40:20;4.40;;;2.00;;
33802;SDS011;20110;53.120;5.786;2023-04-03T03:42:46;6.65;;;2.28;;
33802;SDS011;20110;53.120;5.786;2023-04-03T03:45:12;4.75;;;1.85;;
33802;SDS011;20110;53.120;5.786;2023-04-03T03:47:38;15.70;;;1.92;;
33802;SDS011;20110;53.120;5.786;2023-04-03T03:50:05;3.83;;;1.90;;
33802;SDS011;20110;53.120;5.786;2023-04-03T03:52:31;5.10;;;2.15;;
33802;SDS011;20110;53.120;5.786;2023-04-03T03:54:57;15.55;;;2.13;;
33802;SDS011;20110;53.120;5.786;2023-04-03T03:57:23;7.03;;;2.03;;
33802;SDS011;20110;53.120;5.786;2023-04-03T03:59:50;5.68;;;2.63;;
33802;SDS011;20110;53.120;5.786;2023-04-03T04:02:16;2.50;;;1.55;;
33802;SDS011;20110;53.120;5.786;2023-04-03T04:04:42;6.28;;;1.90;;
33802;SDS011;20110;53.120;5.786;2023-04-03T04:07:08;7.22;;;1.80;;
33802;SDS011;20110;53.120;5.786;2023-04-03T04:09:33;3.95;;;1.90;;
33802;SDS011;20110;53.120;5.786;2023-04-03T04:11:59;8.25;;;1.95;;
33802;SDS011;20110;53.120;5.786;2023-04-03T04:14:25;7.80;;;2.13;;
33802;SDS011;20110;53.120;5.786;2023-04-03T04:16:51;2.83;;;2.28;;
33802;SDS011;20110;53.120;5.786;2023-04-03T04:19:17;5.90;;;1.90;;
33802;SDS011;20110;53.120;5.786;2023-04-03T04:21:43;9.07;;;2.60;;
33802;SDS011;20110;53.120;5.786;2023-04-03T04:24:08;8.25;;;2.33;;
33802;SDS011;20110;53.120;5.786;2023-04-03T04:26:35;4.63;;;2.03;;
33802;SDS011;20110;53.120;5.786;2023-04-03T04:29:00;5.82;;;2.58;;
33802;SDS011;20110;53.120;5.786;2023-04-03T04:31:26;6.07;;;2.05;;
33802;SDS011;20110;53.120;5.786;2023-04-03T04:33:52;8.73;;;2.13;;
33802;SDS011;20110;53.120;5.786;2023-04-03T04:36:18;8.98;;;2.42;;
33802;SDS011;20110;53.120;5.786;2023-04-03T04:38:44;4.75;;;2.17;;
33802;SDS011;20110;53.120;5.786;2023-04-03T04:41:10;6.50;;;2.25;;
33802;SDS011;20110;53.120;5.786;2023-04-03T04:43:36;5.68;;;2.17;;
33802;SDS011;20110;53.120;5.786;2023-04-03T04:46:03;5.40;;;2.03;;
33802;SDS011;20110;53.120;5.786;2023-04-03T04:48:31;7.30;;;2.15;;
33802;SDS011;20110;53.120;5.786;2023-04-03T04:50:58;9.23;;;2.55;;
33802;SDS011;20110;53.120;5.786;2023-04-03T04:53:24;3.30;;;1.80;;
33802;SDS011;20110;53.120;5.786;2023-04-03T04:55:49;5.47;;;2.33;;
33802;SDS011;20110;53.120;5.786;2023-04-03T04:58:16;5.70;;;2.42;;
33802;SDS011;20110;53.120;5.786;2023-04-03T05:00:42;11.27;;;2.50;;
33802;SDS011;20110;53.120;5.786;2023-04-03T05:03:09;5.60;;;2.33;;
33802;SDS011;20110;53.120;5.786;2023-04-03T05:05:34;3.65;;;2.42;;
33802;SDS011;20110;53.120;5.786;2023-04-03T05:08:00;12.13;;;2.60;;
33802;SDS011;20110;53.120;5.786;2023-04-03T05:10:28;11.57;;;2.33;;
33802;SDS011;20110;53.120;5.786;2023-04-03T05:12:54;5.90;;;2.47;;
33802;SDS011;20110;53.120;5.786;2023-04-03T05:15:20;5.80;;;2.50;;
33802;SDS011;20110;53.120;5.786;2023-04-03T05:17:46;10.80;;;2.90;;
33802;SDS011;20110;53.120;5.786;2023-04-03T05:20:12;6.47;;;2.72;;
33802;SDS011;20110;53.120;5.786;2023-04-03T05:22:38;6.47;;;2.55;;
33802;SDS011;20110;53.120;5.786;2023-04-03T05:25:04;7.78;;;2.72;;
33802;SDS011;20110;53.120;5.786;2023-04-03T05:27:31;5.55;;;2.53;;
33802;SDS011;20110;53.120;5.786;2023-04-03T05:29:57;9.43;;;2.28;;
33802;SDS011;20110;53.120;5.786;2023-04-03T05:32:23;8.77;;;3.38;;
33802;SDS011;20110;53.120;5.786;2023-04-03T05:34:52;5.90;;;2.95;;
33802;SDS011;20110;53.120;5.786;2023-04-03T05:37:18;4.70;;;2.60;;
33802;SDS011;20110;53.120;5.786;2023-04-03T05:39:46;5.85;;;3.22;;
33802;SDS011;20110;53.120;5.786;2023-04-03T05:42:12;8.93;;;2.92;;
33802;SDS011;20110;53.120;5.786;2023-04-03T05:44:38;5.53;;;3.13;;
33802;SDS011;20110;53.120;5.786;2023-04-03T05:47:05;11.95;;;3.25;;
33802;SDS011;20110;53.120;5.786;2023-04-03T05:49:31;10.65;;;3.45;;
33802;SDS011;20110;53.120;5.786;2023-04-03T05:51:58;12.40;;;3.20;;
33802;SDS011;20110;53.120;5.786;2023-04-03T05:54:24;6.40;;;2.88;;
33802;SDS011;20110;53.120;5.786;2023-04-03T05:56:53;13.05;;;4.40;;
33802;SDS011;20110;53.120;5.786;2023-04-03T05:59:19;6.82;;;2.70;;
33802;SDS011;20110;53.120;5.786;2023-04-03T06:01:46;16.63;;;3.03;;
33802;SDS011;20110;53.120;5.786;2023-04-03T06:04:14;5.03;;;3.03;;
33802;SDS011;20110;53.120;5.786;2023-04-03T06:06:50;7.45;;;3.20;;
33802;SDS011;20110;53.120;5.786;2023-04-03T06:09:20;12.95;;;2.97;;
33802;SDS011;20110;53.120;5.786;2023-04-03T06:11:48;12.65;;;3.70;;
33802;SDS011;20110;53.120;5.786;2023-04-03T06:14:15;7.78;;;3.58;;
33802;SDS011;20110;53.120;5.786;2023-04-03T06:16:40;14.40;;;3.88;;
33802;SDS011;20110;53.120;5.786;2023-04-03T06:19:10;9.18;;;3.15;;
33802;SDS011;20110;53.120;5.786;2023-04-03T06:21:37;17.23;;;3.70;;
33802;SDS011;20110;53.120;5.786;2023-04-03T06:24:04;13.50;;;3.47;;
33802;SDS011;20110;53.120;5.786;2023-04-03T06:26:30;8.93;;;2.90;;
33802;SDS011;20110;53.120;5.786;2023-04-03T06:28:58;18.88;;;3.95;;
33802;SDS011;20110;53.120;5.786;2023-04-03T06:31:24;8.05;;;3.80;;
33802;SDS011;20110;53.120;5.786;2023-04-03T06:33:50;5.25;;;3.28;;
33802;SDS011;20110;53.120;5.786;2023-04-03T06:36:17;9.98;;;3.20;;
33802;SDS011;20110;53.120;5.786;2023-04-03T06:38:47;12.18;;;2.60;;
33802;SDS011;20110;53.120;5.786;2023-04-03T06:41:14;6.22;;;3.30;;
33802;SDS011;20110;53.120;5.786;2023-04-03T06:43:41;9.88;;;3.10;;
33802;SDS011;20110;53.120;5.786;2023-04-03T06:46:15;6.60;;;3.17;;
33802;SDS011;20110;53.120;5.786;2023-04-03T06:48:43;9.43;;;3.58;;
33802;SDS011;20110;53.120;5.786;2023-04-03T06:51:31;8.27;;;3.55;;
33802;SDS011;20110;53.120;5.786;2023-04-03T06:53:57;4.53;;;3.10;;
33802;SDS011;20110;53.120;5.786;2023-04-03T06:56:25;10.45;;;3.38;;
33802;SDS011;20110;53.120;5.786;2023-04-03T06:58:52;7.00;;;3.17;;
33802;SDS011;20110;53.120;5.786;2023-04-03T07:01:22;9.13;;;2.92;;
33802;SDS011;20110;53.120;5.786;2023-04-03T07:03:51;12.30;;;3.33;;
33802;SDS011;20110;53.120;5.786;2023-04-03T07:06:17;6.32;;;3.17;;
33802;SDS011;20110;53.120;5.786;2023-04-03T07:08:44;14.82;;;2.90;;
33802;SDS011;20110;53.120;5.786;2023-04-03T07:11:13;11.63;;;3.10;;
33802;SDS011;20110;53.120;5.786;2023-04-03T07:13:39;15.20;;;2.83;;
33802;SDS011;20110;53.120;5.786;2023-04-03T07:16:06;9.00;;;2.72;;
33802;SDS011;20110;53.120;5.786;2023-04-03T07:18:33;7.07;;;2.45;;
33802;SDS011;20110;53.120;5.786;2023-04-03T07:21:00;5.38;;;2.40;;
33802;SDS011;20110;53.120;5.786;2023-04-03T07:23:26;9.52;;;3.00;;
33802;SDS011;20110;53.120;5.786;2023-04-03T07:25:54;9.63;;;2.92;;
33802;SDS011;20110;53.120;5.786;2023-04-03T07:28:22;3.22;;;2.13;;
33802;SDS011;20110;53.120;5.786;2023-04-03T07:30:50;6.00;;;2.35;;
33802;SDS011;20110;53.120;5.786;2023-04-03T07:33:33;4.82;;;2.13;;
33802;SDS011;20110;53.120;5.786;2023-04-03T07:36:01;10.60;;;2.42;;
33802;SDS011;20110;53.120;5.786;2023-04-03T07:38:27;12.02;;;3.05;;
33802;SDS011;20110;53.120;5.786;2023-04-03T07:40:53;7.32;;;3.10;;
33802;SDS011;20110;53.120;5.786;2023-04-03T07:43:20;9.07;;;2.33;;
33802;SDS011;20110;53.120;5.786;2023-04-03T07:45:47;9.38;;;2.72;;
33802;SDS011;20110;53.120;5.786;2023-04-03T07:48:20;7.53;;;2.38;;
33802;SDS011;20110;53.120;5.786;2023-04-03T07:50:49;2.85;;;1.67;;
33802;SDS011;20110;53.120;5.786;2023-04-03T07:53:16;11.45;;;2.53;;
33802;SDS011;20110;53.120;5.786;2023-04-03T07:55:45;4.47;;;2.30;;
33802;SDS011;20110;53.120;5.786;2023-04-03T07:58:14;7.03;;;2.15;;
33802;SDS011;20110;53.120;5.786;2023-04-03T08:00:42;7.95;;;2.30;;
33802;SDS011;20110;53.120;5.786;2023-04-03T08:03:09;7.07;;;1.98;;
33802;SDS011;20110;53.120;5.786;2023-04-03T08:05:38;5.70;;;1.65;;
33802;SDS011;20110;53.120;5.786;2023-04-03T08:08:10;5.57;;;2.42;;
33802;SDS011;20110;53.120;5.786;2023-04-03T08:10:39;8.80;;;2.13;;
33802;SDS011;20110;53.120;5.786;2023-04-03T08:13:05;10.40;;;2.03;;
33802;SDS011;20110;53.120;5.786;2023-04-03T08:15:31;3.28;;;2.13;;
33802;SDS011;20110;53.120;5.786;2023-04-03T08:17:58;6.57;;;2.10;;
33802;SDS011;20110;53.120;5.786;2023-04-03T08:20:25;3.65;;;1.95;;
33802;SDS011;20110;53.120;5.786;2023-04-03T08:22:52;6.10;;;1.73;;
33802;SDS011;20110;53.120;5.786;2023-04-03T08:25:19;3.00;;;1.60;;
33802;SDS011;20110;53.120;5.786;2023-04-03T08:27:45;10.70;;;2.20;;
33802;SDS011;20110;53.120;5.786;2023-04-03T08:30:11;9.38;;;2.42;;
33802;SDS011;20110;53.120;5.786;2023-04-03T08:32:37;4.82;;;1.42;;
33802;SDS011;20110;53.120;5.786;2023-04-03T08:35:03;5.70;;;2.00;;
33802;SDS011;20110;53.120;5.786;2023-04-03T08:37:30;4.50;;;1.70;;
33802;SDS011;20110;53.120;5.786;2023-04-03T08:39:56;7.57;;;1.60;;
33802;SDS011;20110;53.120;5.786;2023-04-03T08:45:45;2.70;;;1.95;;
33802;SDS011;20110;53.120;5.786;2023-04-03T08:51:01;6.13;;;2.20;;
33802;SDS011;20110;53.120;5.786;2023-04-03T08:53:37;7.95;;;1.77;;
33802;SDS011;20110;53.120;5.786;2023-04-03T08:56:10;4.40;;;1.80;;
33802;SDS011;20110;53.120;5.786;2023-04-03T08:58:56;6.60;;;2.72;;
33802;SDS011;20110;53.120;5.786;2023-04-03T09:01:30;3.90;;;2.13;;
33802;SDS011;20110;53.120;5.786;2023-04-03T09:04:10;2.65;;;1.90;;
33802;SDS011;20110;53.120;5.786;2023-04-03T09:06:45;4.57;;;1.50;;
33802;SDS011;20110;53.120;5.786;2023-04-03T09:12:25;3.35;;;1.50;;
33802;SDS011;20110;53.120;5.786;2023-04-03T09:20:27;1.35;;;1.17;;
33802;SDS011;20110;53.120;5.786;2023-04-03T09:26:09;1.77;;;1.50;;
33802;SDS011;20110;53.120;5.786;2023-04-03T09:28:44;2.15;;;1.20;;
33802;SDS011;20110;53.120;5.786;2023-04-03T09:31:24;1.40;;;1.30;;
33802;SDS011;20110;53.120;5.786;2023-04-03T09:33:59;5.18;;;1.17;;
33802;SDS011;20110;53.120;5.786;2023-04-03T09:39:26;3.72;;;1.50;;
33802;SDS011;20110;53.120;5.786;2023-04-03T09:41:55;4.15;;;1.40;;
33802;SDS011;20110;53.120;5.786;2023-04-03T09:44:44;3.10;;;1.10;;
33802;SDS011;20110;53.120;5.786;2023-04-03T09:47:23;3.10;;;1.15;;
33802;SDS011;20110;53.120;5.786;2023-04-03T09:52:49;1.90;;;1.48;;
33802;SDS011;20110;53.120;5.786;2023-04-03T09:55:20;1.67;;;1.57;;
33802;SDS011;20110;53.120;5.786;2023-04-03T09:58:01;1.70;;;1.60;;
33802;SDS011;20110;53.120;5.786;2023-04-03T10:00:52;1.67;;;1.58;;
33802;SDS011;20110;53.120;5.786;2023-04-03T10:03:31;3.17;;;1.77;;
33802;SDS011;20110;53.120;5.786;2023-04-03T10:06:02;3.00;;;1.77;;
33802;SDS011;20110;53.120;5.786;2023-04-03T10:08:30;3.90;;;2.10;;
33802;SDS011;20110;53.120;5.786;2023-04-03T10:11:16;3.63;;;1.42;;
33802;SDS011;20110;53.120;5.786;2023-04-03T10:13:56;2.03;;;1.38;;
33802;SDS011;20110;53.120;5.786;2023-04-03T10:16:38;3.20;;;1.50;;
33802;SDS011;20110;53.120;5.786;2023-04-03T10:19:17;2.45;;;2.08;;
33802;SDS011;20110;53.120;5.786;2023-04-03T10:22:16;3.83;;;1.67;;
33802;SDS011;20110;53.120;5.786;2023-04-03T10:27:59;4.40;;;1.70;;
33802;SDS011;20110;53.120;5.786;2023-04-03T10:31:03;1.90;;;1.42;;
33802;SDS011;20110;53.120;5.786;2023-04-03T10:34:31;2.88;;;1.70;;
33802;SDS011;20110;53.120;5.786;2023-04-03T10:37:21;1.92;;;1.42;;
33802;SDS011;20110;53.120;5.786;2023-04-03T10:39:53;2.63;;;1.27;;
33802;SDS011;20110;53.120;5.786;2023-04-03T10:45:19;1.90;;;1.67;;
33802;SDS011;20110;53.120;5.786;2023-04-03T10:48:18;3.28;;;2.65;;
33802;SDS011;20110;53.120;5.786;2023-04-03T10:56:56;7.43;;;1.40;;
33802;SDS011;20110;53.120;5.786;2023-04-03T10:59:33;1.83;;;1.48;;
33802;SDS011;20110;53.120;5.786;2023-04-03T11:02:22;1.48;;;1.27;;
33802;SDS011;20110;53.120;5.786;2023-04-03T11:04:53;5.28;;;1.42;;
33802;SDS011;20110;53.120;5.786;2023-04-03T11:07:42;2.20;;;1.38;;
33802;SDS011;20110;53.120;5.786;2023-04-03T11:10:17;1.38;;;1.27;;
33802;SDS011;20110;53.120;5.786;2023-04-03T11:15:27;1.92;;;1.60;;
33802;SDS011;20110;53.120;5.786;2023-04-03T11:18:00;1.85;;;1.38;;
33802;SDS011;20110;53.120;5.786;2023-04-03T11:20:33;2.78;;;1.65;;
33802;SDS011;20110;53.120;5.786;2023-04-03T11:25:44;1.88;;;1.50;;
33802;SDS011;20110;53.120;5.786;2023-04-03T11:28:17;1.48;;;1.38;;
33802;SDS011;20110;53.120;5.786;2023-04-03T11:30:45;2.30;;;1.27;;
33802;SDS011;20110;53.120;5.786;2023-04-03T11:33:32;1.85;;;1.50;;
33802;SDS011;20110;53.120;5.786;2023-04-03T11:38:43;4.35;;;1.58;;
33802;SDS011;20110;53.120;5.786;2023-04-03T11:41:14;1.38;;;1.20;;
33802;SDS011;20110;53.120;5.786;2023-04-03T11:43:41;2.35;;;1.30;;
33802;SDS011;20110;53.120;5.786;2023-04-03T11:46:22;1.67;;;1.52;;
33802;SDS011;20110;53.120;5.786;2023-04-03T12:05:52;3.50;;;1.63;;
33802;SDS011;20110;53.120;5.786;2023-04-03T12:11:29;2.67;;;1.73;;
33802;SDS011;20110;53.120;5.786;2023-04-03T12:18:56;2.00;;;1.40;;
33802;SDS011;20110;53.120;5.786;2023-04-03T12:26:46;2.70;;;1.40;;
33802;SDS011;20110;53.120;5.786;2023-04-03T12:29:28;3.50;;;1.60;;
33802;SDS011;20110;53.120;5.786;2023-04-03T12:46:58;1.93;;;1.40;;
33802;SDS011;20110;53.120;5.786;2023-04-03T12:49:41;2.63;;;1.37;;
33802;SDS011;20110;53.120;5.786;2023-04-03T12:52:30;3.40;;;1.10;;
33802;SDS011;20110;53.120;5.786;2023-04-03T12:55:14;2.58;;;1.63;;
33802;SDS011;20110;53.120;5.786;2023-04-03T12:57:43;3.22;;;1.40;;
33802;SDS011;20110;53.120;5.786;2023-04-03T13:03:05;1.87;;;1.40;;
33802;SDS011;20110;53.120;5.786;2023-04-03T13:05:48;2.63;;;1.40;;
33802;SDS011;20110;53.120;5.786;2023-04-03T13:08:13;7.63;;;1.70;;
33802;SDS011;20110;53.120;5.786;2023-04-03T13:13:59;3.17;;;1.40;;
33802;SDS011;20110;53.120;5.786;2023-04-03T13:16:30;1.90;;;1.38;;
33802;SDS011;20110;53.120;5.786;2023-04-03T13:19:00;3.72;;;1.30;;
33802;SDS011;20110;53.120;5.786;2023-04-03T13:21:30;1.42;;;1.33;;
33802;SDS011;20110;53.120;5.786;2023-04-03T13:23:59;4.00;;;1.42;;
33802;SDS011;20110;53.120;5.786;2023-04-03T13:26:29;3.50;;;1.60;;
33802;SDS011;20110;53.120;5.786;2023-04-03T13:29:02;2.70;;;1.65;;
33802;SDS011;20110;53.120;5.786;2023-04-03T13:31:37;3.95;;;1.92;;
33802;SDS011;20110;53.120;5.786;2023-04-03T13:34:06;3.85;;;1.75;;
33802;SDS011;20110;53.120;5.786;2023-04-03T13:41:48;2.75;;;1.80;;
33802;SDS011;20110;53.120;5.786;2023-04-03T13:44:34;1.48;;;1.38;;
33802;SDS011;20110;53.120;5.786;2023-04-03T13:49:37;4.05;;;1.30;;
33802;SDS011;20110;53.120;5.786;2023-04-03T13:55:02;9.07;;;2.00;;
33802;SDS011;20110;53.120;5.786;2023-04-03T14:03:30;3.38;;;1.40;;
33802;SDS011;20110;53.120;5.786;2023-04-03T14:06:08;3.35;;;1.60;;
33802;SDS011;20110;53.120;5.786;2023-04-03T14:08:41;2.38;;;1.30;;
33802;SDS011;20110;53.120;5.786;2023-04-03T14:11:16;1.40;;;1.30;;
33802;SDS011;20110;53.120;5.786;2023-04-03T14:13:49;1.70;;;1.60;;
33802;SDS011;20110;53.120;5.786;2023-04-03T14:16:19;1.80;;;1.23;;
33802;SDS011;20110;53.120;5.786;2023-04-03T14:18:49;2.17;;;1.65;;
33802;SDS011;20110;53.120;5.786;2023-04-03T14:21:16;3.83;;;1.60;;
33802;SDS011;20110;53.120;5.786;2023-04-03T14:23:45;3.95;;;1.40;;
33802;SDS011;20110;53.120;5.786;2023-04-03T14:26:12;2.60;;;1.60;;
33802;SDS011;20110;53.120;5.786;2023-04-03T14:28:48;2.35;;;1.75;;
33802;SDS011;20110;53.120;5.786;2023-04-03T14:31:17;3.30;;;1.63;;
33802;SDS011;20110;53.120;5.786;2023-04-03T14:33:44;1.65;;;1.42;;
33802;SDS011;20110;53.120;5.786;2023-04-03T14:36:12;1.60;;;1.25;;
33802;SDS011;20110;53.120;5.786;2023-04-03T14:38:58;3.55;;;1.65;;
33802;SDS011;20110;53.120;5.786;2023-04-03T14:41:26;1.88;;;1.42;;
33802;SDS011;20110;53.120;5.786;2023-04-03T14:43:52;3.17;;;1.63;;
33802;SDS011;20110;53.120;5.786;2023-04-03T14:48:57;4.28;;;1.60;;
33802;SDS011;20110;53.120;5.786;2023-04-03T14:51:24;3.97;;;1.88;;
33802;SDS011;20110;53.120;5.786;2023-04-03T14:53:51;3.75;;;1.60;;
33802;SDS011;20110;53.120;5.786;2023-04-03T14:56:21;1.65;;;1.40;;
33802;SDS011;20110;53.120;5.786;2023-04-03T14:58:54;2.15;;;1.45;;
33802;SDS011;20110;53.120;5.786;2023-04-03T15:01:23;2.97;;;1.70;;
33802;SDS011;20110;53.120;5.786;2023-04-03T15:03:50;2.70;;;1.55;;
33802;SDS011;20110;53.120;5.786;2023-04-03T15:06:16;2.67;;;1.50;;
33802;SDS011;20110;53.120;5.786;2023-04-03T15:08:43;7.68;;;1.70;;
33802;SDS011;20110;53.120;5.786;2023-04-03T15:11:12;1.55;;;1.40;;
33802;SDS011;20110;53.120;5.786;2023-04-03T15:13:40;5.47;;;1.98;;
33802;SDS011;20110;53.120;5.786;2023-04-03T15:16:10;1.98;;;1.50;;
33802;SDS011;20110;53.120;5.786;2023-04-03T15:18:44;6.53;;;1.73;;
33802;SDS011;20110;53.120;5.786;2023-04-03T15:21:12;5.22;;;1.52;;
33802;SDS011;20110;53.120;5.786;2023-04-03T15:23:38;1.88;;;1.48;;
33802;SDS011;20110;53.120;5.786;2023-04-03T15:26:04;5.47;;;1.45;;
33802;SDS011;20110;53.120;5.786;2023-04-03T15:28:35;2.15;;;1.40;;
33802;SDS011;20110;53.120;5.786;2023-04-03T15:31:05;3.95;;;1.73;;
33802;SDS011;20110;53.120;5.786;2023-04-03T15:33:33;5.15;;;1.52;;
33802;SDS011;20110;53.120;5.786;2023-04-03T15:36:00;3.10;;;1.98;;
33802;SDS011;20110;53.120;5.786;2023-04-03T15:38:27;2.50;;;2.00;;
33802;SDS011;20110;53.120;5.786;2023-04-03T15:40:53;5.88;;;2.20;;
33802;SDS011;20110;53.120;5.786;2023-04-03T15:43:21;4.13;;;1.63;;
33802;SDS011;20110;53.120;5.786;2023-04-03T15:45:47;2.00;;;1.80;;
33802;SDS011;20110;53.120;5.786;2023-04-03T15:48:30;2.67;;;1.77;;
33802;SDS011;20110;53.120;5.786;2023-04-03T15:50:56;4.68;;;1.55;;
33802;SDS011;20110;53.120;5.786;2023-04-03T15:53:22;3.35;;;1.77;;
33802;SDS011;20110;53.120;5.786;2023-04-03T15:55:48;2.78;;;1.60;;
33802;SDS011;20110;53.120;5.786;2023-04-03T15:58:14;3.70;;;1.80;;
33802;SDS011;20110;53.120;5.786;2023-04-03T16:00:40;3.67;;;1.83;;
33802;SDS011;20110;53.120;5.786;2023-04-03T16:03:14;2.58;;;1.55;;
33802;SDS011;20110;53.120;5.786;2023-04-03T16:05:44;7.28;;;2.13;;
33802;SDS011;20110;53.120;5.786;2023-04-03T16:08:10;7.75;;;2.25;;
33802;SDS011;20110;53.120;5.786;2023-04-03T16:10:37;3.10;;;1.63;;
33802;SDS011;20110;53.120;5.786;2023-04-03T16:13:04;2.70;;;1.75;;
33802;SDS011;20110;53.120;5.786;2023-04-03T16:15:31;4.55;;;1.67;;
33802;SDS011;20110;53.120;5.786;2023-04-03T16:17:59;3.60;;;1.50;;
33802;SDS011;20110;53.120;5.786;2023-04-03T16:20:27;5.55;;;1.92;;
33802;SDS011;20110;53.120;5.786;2023-04-03T16:22:53;2.35;;;1.77;;
33802;SDS011;20110;53.120;5.786;2023-04-03T16:25:22;3.28;;;1.30;;
33802;SDS011;20110;53.120;5.786;2023-04-03T16:27:48;3.35;;;1.35;;
33802;SDS011;20110;53.120;5.786;2023-04-03T16:30:14;3.92;;;1.30;;
33802;SDS011;20110;53.120;5.786;2023-04-03T16:32:40;1.63;;;1.20;;
33802;SDS011;20110;53.120;5.786;2023-04-03T16:35:07;5.13;;;1.77;;
33802;SDS011;20110;53.120;5.786;2023-04-03T16:37:35;1.30;;;1.20;;
33802;SDS011;20110;53.120;5.786;2023-04-03T16:40:02;8.57;;;1.33;;
33802;SDS011;20110;53.120;5.786;2023-04-03T16:42:31;2.38;;;1.45;;
33802;SDS011;20110;53.120;5.786;2023-04-03T16:44:57;3.88;;;1.15;;
33802;SDS011;20110;53.120;5.786;2023-04-03T16:47:25;1.80;;;1.10;;
33802;SDS011;20110;53.120;5.786;2023-04-03T16:49:50;1.83;;;0.93;;
33802;SDS011;20110;53.120;5.786;2023-04-03T16:52:16;2.05;;;1.20;;
33802;SDS011;20110;53.120;5.786;2023-04-03T16:54:42;2.45;;;1.30;;
33802;SDS011;20110;53.120;5.786;2023-04-03T16:57:08;2.35;;;1.10;;
33802;SDS011;20110;53.120;5.786;2023-04-03T16:59:34;2.65;;;1.13;;
33802;SDS011;20110;53.120;5.786;2023-04-03T17:02:00;3.75;;;1.67;;
33802;SDS011;20110;53.120;5.786;2023-04-03T17:04:25;1.50;;;1.27;;